Time;durP1;ratioP1;P1;durP2;ratioP2;P2;SDS_P1;SDS_P2;PMS_P1;PMS_P2;Temp;Humidity;BMP_temperature;BMP_pressure;BME280_temperature;BME280_humidity;BME280_pressure;Samples;Min_cycle;Max_cycle;Signal;HPM_P1;HPM_P2
2023/08/29 00:00:30;;;;;;;4.60;3.10;;;14.60;99.90;;;;;;5102279;27;20053;-74
2023/08/29 00:02:55;;;;;;;5.07;2.97;;;14.60;99.90;;;;;;5118902;27;20382;-74
2023/08/29 00:05:21;;;;;;;6.13;3.13;;;14.60;99.90;;;;;;5119221;27;20043;-74
2023/08/29 00:07:47;;;;;;;4.97;3.17;;;14.60;99.90;;;;;;5136081;27;20042;-76
2023/08/29 00:10:13;;;;;;;4.50;2.83;;;14.60;99.90;;;;;;5135687;27;20050;-74
2023/08/29 00:12:41;;;;;;;6.07;2.90;;;14.60;99.90;;;;;;5119080;27;20081;-74
2023/08/29 00:15:08;;;;;;;4.40;2.93;;;14.60;99.90;;;;;;5118766;27;20059;-74
2023/08/29 00:17:34;;;;;;;4.80;3.03;;;14.60;99.90;;;;;;5118565;27;20491;-74
2023/08/29 00:20:00;;;;;;;7.73;3.20;;;14.60;99.90;;;;;;5101705;27;20287;-74
2023/08/29 00:22:26;;;;;;;5.23;3.33;;;14.60;99.90;;;;;;5102205;27;20046;-74
2023/08/29 00:24:52;;;;;;;5.20;3.00;;;14.60;99.90;;;;;;5101829;27;20460;-74
2023/08/29 00:27:21;;;;;;;6.07;3.30;;;14.60;99.90;;;;;;5119008;27;20042;-74
2023/08/29 00:29:47;;;;;;;5.00;3.57;;;14.50;99.90;;;;;;5135679;27;20311;-74
2023/08/29 00:32:13;;;;;;;5.40;3.20;;;14.50;99.90;;;;;;5135602;27;20287;-74
2023/08/29 00:34:39;;;;;;;5.17;3.10;;;14.40;99.90;;;;;;5119002;27;20640;-74
2023/08/29 00:37:05;;;;;;;5.83;3.07;;;14.40;99.90;;;;;;5118613;27;20385;-74
2023/08/29 00:39:31;;;;;;;4.97;3.27;;;14.40;99.90;;;;;;5136783;27;20034;-74
2023/08/29 00:41:56;;;;;;;6.17;3.13;;;14.30;99.90;;;;;;5139628;27;20045;-74
2023/08/29 00:44:22;;;;;;;5.27;3.40;;;14.30;99.90;;;;;;5122651;27;20288;-74
2023/08/29 00:46:48;;;;;;;5.87;3.33;;;14.30;99.90;;;;;;5139896;27;20042;-74
2023/08/29 00:49:18;;;;;;;4.77;2.90;;;14.30;99.90;;;;;;5105149;27;20046;-74
2023/08/29 00:51:45;;;;;;;5.97;3.07;;;14.40;99.90;;;;;;5139814;27;20767;-74
2023/08/29 00:54:14;;;;;;;8.13;3.30;;;14.50;99.90;;;;;;5157609;27;20288;-74
2023/08/29 00:56:40;;;;;;;4.80;3.20;;;14.20;99.90;;;;;;5139624;27;20295;-74
2023/08/29 00:59:06;;;;;;;6.37;3.30;;;14.10;99.90;;;;;;5122211;27;20284;-74
2023/08/29 01:01:34;;;;;;;6.27;3.60;;;14.20;99.90;;;;;;5105580;27;20045;-74
2023/08/29 01:04:00;;;;;;;6.23;3.10;;;14.20;99.90;;;;;;5139203;27;20050;-74
2023/08/29 01:06:27;;;;;;;6.83;3.20;;;14.30;99.90;;;;;;5157834;27;20287;-74
2023/08/29 01:08:53;;;;;;;5.53;3.30;;;14.30;99.90;;;;;;5122093;27;20067;-74
2023/08/29 01:11:42;;;;;;;5.40;3.40;;;14.20;99.90;;;;;;5121830;27;20691;-74
2023/08/29 01:14:42;;;;;;;5.23;3.07;;;14.20;99.90;;;;;;5121920;27;20060;-74
2023/08/29 01:17:27;;;;;;;5.83;3.30;;;14.20;99.90;;;;;;5121277;27;20296;-74
2023/08/29 01:19:54;;;;;;;5.70;3.25;;;14.10;99.90;;;;;;5139230;27;20288;-74
2023/08/29 01:22:42;;;;;;;7.20;3.43;;;14.30;99.90;;;;;;5121641;27;20058;-74
2023/08/29 01:25:32;;;;;;;6.53;3.03;;;14.00;99.90;;;;;;5138730;27;20395;-74
2023/08/29 01:27:58;;;;;;;5.30;3.67;;;14.00;99.90;;;;;;5138679;27;20327;-75
2023/08/29 01:30:24;;;;;;;5.60;3.57;;;14.00;99.90;;;;;;5139017;27;20344;-74
2023/08/29 01:32:51;;;;;;;5.97;3.53;;;14.00;99.90;;;;;;5138678;27;20711;-74
2023/08/29 01:35:17;;;;;;;5.07;3.10;;;13.90;99.90;;;;;;5104521;27;20295;-74
2023/08/29 01:37:43;;;;;;;4.90;3.57;;;14.10;99.90;;;;;;5138635;27;20292;-74
2023/08/29 01:40:09;;;;;;;5.03;3.07;;;14.10;99.90;;;;;;5104090;27;20050;-74
2023/08/29 01:42:36;;;;;;;6.80;3.33;;;13.90;99.90;;;;;;5156945;27;20133;-74
2023/08/29 01:45:03;;;;;;;7.77;3.73;;;14.00;99.90;;;;;;5121274;27;20284;-74
2023/08/29 01:47:29;;;;;;;4.63;3.60;;;14.00;99.90;;;;;;5138675;27;20291;-74
2023/08/29 01:49:55;;;;;;;6.43;3.60;;;14.10;99.90;;;;;;5137819;27;20308;-74
2023/08/29 01:52:20;;;;;;;6.03;3.60;;;13.90;99.90;;;;;;5121028;27;20492;-74
2023/08/29 01:54:48;;;;;;;5.87;3.23;;;13.90;99.90;;;;;;5104329;27;20053;-74
2023/08/29 01:57:15;;;;;;;5.33;3.33;;;14.00;99.90;;;;;;5138095;27;20138;-74
2023/08/29 01:59:43;;;;;;;6.00;3.43;;;13.80;99.90;;;;;;5120918;27;20780;-74
2023/08/29 02:02:09;;;;;;;6.27;3.17;;;13.90;99.90;;;;;;5138029;27;20786;-75
2023/08/29 02:04:34;;;;;;;5.97;3.47;;;13.90;99.90;;;;;;5137869;27;20283;-74
2023/08/29 02:07:00;;;;;;;5.90;3.13;;;13.80;99.90;;;;;;5121130;27;20043;-74
2023/08/29 02:09:26;;;;;;;5.57;3.23;;;13.70;99.90;;;;;;5137404;27;20044;-74
2023/08/29 02:11:51;;;;;;;4.73;3.00;;;13.70;99.90;;;;;;5121105;27;20050;-74
2023/08/29 02:14:18;;;;;;;5.10;3.40;;;13.80;99.90;;;;;;5137392;27;20539;-74
2023/08/29 02:16:44;;;;;;;4.97;3.40;;;13.70;99.90;;;;;;5120873;27;20288;-74
2023/08/29 02:19:09;;;;;;;4.97;3.30;;;13.80;99.90;;;;;;5103548;27;20061;-74
2023/08/29 02:21:35;;;;;;;4.07;2.80;;;13.80;99.90;;;;;;5155750;27;20042;-74
2023/08/29 02:24:02;;;;;;;4.97;3.30;;;13.80;99.90;;;;;;5103640;27;20053;-74
2023/08/29 02:26:28;;;;;;;5.63;3.30;;;13.70;99.90;;;;;;5103918;27;20470;-74
2023/08/29 02:28:54;;;;;;;4.67;3.27;;;13.70;99.90;;;;;;5103204;27;20304;-73
2023/08/29 02:31:20;;;;;;;4.33;2.90;;;13.70;99.90;;;;;;5120227;27;20051;-74
2023/08/29 02:33:46;;;;;;;5.83;3.53;;;13.60;99.90;;;;;;5137942;27;20129;-74
2023/08/29 02:36:12;;;;;;;7.00;3.13;;;13.60;99.90;;;;;;5120339;27;20291;-74
2023/08/29 02:38:38;;;;;;;5.53;3.13;;;13.60;99.90;;;;;;5155862;27;20272;-74
2023/08/29 02:41:06;;;;;;;4.77;2.90;;;13.50;99.90;;;;;;5137284;27;20280;-76
2023/08/29 02:43:32;;;;;;;4.23;2.50;;;13.50;99.90;;;;;;5120350;27;20300;-74
2023/08/29 02:45:58;;;;;;;5.80;2.93;;;;;;;;;;5155898;27;20284;-74
2023/08/29 02:48:25;;;;;;;5.23;3.03;;;13.70;99.90;;;;;;5119840;27;20432;-74
2023/08/29 02:50:51;;;;;;;4.33;2.70;;;13.50;99.90;;;;;;5137304;27;20295;-74
2023/08/29 02:53:17;;;;;;;4.67;2.63;;;13.50;99.90;;;;;;5154902;27;20763;-74
2023/08/29 02:55:43;;;;;;;4.83;3.13;;;;;;;;;;5155549;27;20276;-74
2023/08/29 02:58:09;;;;;;;4.33;2.80;;;13.50;99.90;;;;;;5102963;27;20292;-74
2023/08/29 03:00:35;;;;;;;4.83;2.73;;;13.50;99.90;;;;;;5137157;27;20337;-74
2023/08/29 03:03:04;;;;;;;5.43;2.60;;;13.50;99.90;;;;;;5136130;27;20454;-74
2023/08/29 03:05:30;;;;;;;6.50;3.20;;;13.40;99.90;;;;;;5137124;27;20082;-74
2023/08/29 03:07:57;;;;;;;3.93;2.63;;;13.40;99.90;;;;;;5155202;27;20276;-74
2023/08/29 03:10:23;;;;;;;5.50;2.70;;;13.40;99.90;;;;;;5136674;27;20370;-74
2023/08/29 03:12:52;;;;;;;4.40;2.50;;;13.40;99.90;;;;;;5137007;27;20292;-74
2023/08/29 03:15:18;;;;;;;4.00;2.57;;;13.30;99.90;;;;;;5119228;27;20292;-75
2023/08/29 03:17:44;;;;;;;3.93;2.50;;;13.30;99.90;;;;;;5119352;27;20349;-74
2023/08/29 03:20:11;;;;;;;3.93;2.57;;;13.30;99.90;;;;;;5154848;27;20368;-78
2023/08/29 03:22:37;;;;;;;5.53;2.50;;;13.30;99.90;;;;;;5136627;27;20710;-75
2023/08/29 03:25:03;;;;;;;5.30;2.23;;;13.30;99.90;;;;;;5136492;27;20538;-74
2023/08/29 03:27:29;;;;;;;4.43;2.33;;;13.30;99.90;;;;;;5136535;27;20081;-74
2023/08/29 03:29:54;;;;;;;6.83;2.70;;;13.20;99.90;;;;;;5154867;27;20335;-75
2023/08/29 03:32:20;;;;;;;4.27;2.10;;;13.20;99.90;;;;;;5102339;27;20047;-74
2023/08/29 03:34:51;;;;;;;4.60;2.33;;;13.10;99.90;;;;;;5119461;27;20042;-74
2023/08/29 03:37:17;;;;;;;3.73;2.20;;;13.10;99.90;;;;;;5154776;27;20053;-75
2023/08/29 03:39:43;;;;;;;4.53;2.37;;;13.10;99.90;;;;;;5136407;27;20284;-75
2023/08/29 03:42:09;;;;;;;5.00;2.23;;;13.00;99.90;;;;;;5102385;27;20075;-75
2023/08/29 03:44:34;;;;;;;4.53;2.37;;;13.10;99.90;;;;;;5118765;27;20050;-75
2023/08/29 03:47:00;;;;;;;4.03;2.37;;;13.10;99.90;;;;;;5119391;27;20121;-75
2023/08/29 03:49:26;;;;;;;4.43;2.40;;;13.20;99.90;;;;;;5118875;27;20509;-75
2023/08/29 03:51:51;;;;;;;4.87;2.30;;;13.10;99.90;;;;;;5118985;27;20051;-74
2023/08/29 03:54:17;;;;;;;4.13;2.50;;;13.10;99.90;;;;;;5136195;27;20047;-75
2023/08/29 03:56:43;;;;;;;3.77;2.13;;;13.00;99.90;;;;;;5118858;27;20077;-74
2023/08/29 03:59:09;;;;;;;4.03;2.10;;;13.00;99.90;;;;;;5154570;27;20046;-74
2023/08/29 04:01:35;;;;;;;2.93;2.00;;;12.90;99.90;;;;;;5118978;27;20292;-74
2023/08/29 04:04:02;;;;;;;5.10;2.33;;;13.00;99.90;;;;;;5136241;27;20360;-74
2023/08/29 04:06:32;;;;;;;3.70;1.70;;;12.90;99.90;;;;;;5119261;27;20047;-74
2023/08/29 04:08:58;;;;;;;4.00;2.20;;;13.00;99.90;;;;;;5136273;27;20356;-74
2023/08/29 04:11:23;;;;;;;4.90;2.37;;;12.90;99.90;;;;;;5118876;27;20300;-75
2023/08/29 04:13:49;;;;;;;3.50;2.00;;;12.90;99.90;;;;;;5120850;27;20424;-75
2023/08/29 04:16:15;;;;;;;4.83;2.30;;;12.90;99.90;;;;;;5123163;27;20042;-74
2023/08/29 04:18:41;;;;;;;4.03;2.20;;;12.80;99.90;;;;;;5139821;27;20420;-74
2023/08/29 04:21:07;;;;;;;4.50;1.93;;;12.90;99.90;;;;;;5140328;27;20099;-74
2023/08/29 04:23:33;;;;;;;4.13;2.33;;;12.80;99.90;;;;;;5139992;27;20296;-74
2023/08/29 04:26:05;;;;;;;4.13;2.30;;;12.80;99.90;;;;;;5106233;27;20447;-74
2023/08/29 04:28:30;;;;;;;4.50;2.20;;;12.80;99.90;;;;;;5106117;27;20043;-74
2023/08/29 04:31:06;;;;;;;4.53;2.40;;;12.80;99.90;;;;;;5122977;27;20280;-74
2023/08/29 04:33:32;;;;;;;4.43;2.03;;;12.70;99.90;;;;;;5157794;27;20463;-74
2023/08/29 04:35:59;;;;;;;6.03;2.50;;;12.80;99.90;;;;;;5140006;27;20322;-75
2023/08/29 04:38:25;;;;;;;4.10;2.47;;;12.80;99.90;;;;;;5139630;27;20043;-75
2023/08/29 04:40:53;;;;;;;3.83;2.50;;;12.70;99.90;;;;;;5122866;27;20295;-74
2023/08/29 04:43:19;;;;;;;4.63;2.50;;;12.80;99.90;;;;;;5139270;27;20447;-76
2023/08/29 04:45:46;;;;;;;4.00;2.50;;;12.70;99.90;;;;;;5158723;27;20284;-74
2023/08/29 04:48:11;;;;;;;7.53;2.57;;;12.70;99.90;;;;;;5139664;27;20043;-74
2023/08/29 04:50:37;;;;;;;4.90;2.70;;;12.60;99.90;;;;;;5104704;27;20297;-74
2023/08/29 04:53:04;;;;;;;4.43;2.63;;;12.70;99.90;;;;;;5139578;27;20050;-74
2023/08/29 04:55:30;;;;;;;5.47;2.70;;;12.70;99.90;;;;;;5122255;27;20086;-74
2023/08/29 04:57:58;;;;;;;4.10;2.40;;;12.60;99.90;;;;;;5139592;27;20292;-74
2023/08/29 05:00:23;;;;;;;4.40;2.67;;;12.60;99.90;;;;;;5139290;27;20287;-75
2023/08/29 05:02:49;;;;;;;4.27;2.57;;;12.60;99.90;;;;;;5122406;27;20272;-75
2023/08/29 05:05:15;;;;;;;4.20;2.40;;;12.60;99.90;;;;;;5157750;27;20475;-74
2023/08/29 05:07:41;;;;;;;6.70;2.63;;;12.70;99.90;;;;;;5138985;27;20047;-74
2023/08/29 05:10:07;;;;;;;3.70;2.43;;;12.70;99.90;;;;;;5139152;27;20130;-74
2023/08/29 05:12:32;;;;;;;5.70;2.70;;;12.70;99.90;;;;;;5139116;27;20087;-74
2023/08/29 05:14:58;;;;;;;3.93;2.53;;;12.70;99.90;;;;;;5122167;27;20292;-74
2023/08/29 05:17:24;;;;;;;5.47;2.80;;;12.70;99.90;;;;;;5104661;27;20058;-75
2023/08/29 05:19:51;;;;;;;6.07;2.90;;;12.70;99.90;;;;;;5122066;27;20414;-74
2023/08/29 05:22:17;;;;;;;4.67;2.80;;;12.80;99.90;;;;;;5157381;27;20069;-74
2023/08/29 05:24:43;;;;;;;4.43;2.70;;;12.80;99.90;;;;;;5137900;27;20837;-74
2023/08/29 05:27:09;;;;;;;3.80;2.30;;;12.80;99.90;;;;;;5138773;27;20316;-74
2023/08/29 05:29:35;;;;;;;4.83;2.50;;;12.80;99.90;;;;;;5121289;27;20470;-75
2023/08/29 05:32:00;;;;;;;5.97;2.97;;;12.90;99.90;;;;;;5138951;27;20079;-75
2023/08/29 05:34:26;;;;;;;4.83;2.67;;;12.90;99.90;;;;;;5156854;27;20051;-75
2023/08/29 05:36:52;;;;;;;5.40;2.37;;;13.00;99.90;;;;;;5104809;27;20057;-74
2023/08/29 05:39:17;;;;;;;5.30;2.23;;;13.00;99.90;;;;;;5121596;27;20046;-74
2023/08/29 05:41:43;;;;;;;5.20;2.77;;;13.10;99.90;;;;;;5121271;27;20327;-74
2023/08/29 05:44:09;;;;;;;4.03;2.43;;;13.20;99.90;;;;;;5156976;27;20039;-74
2023/08/29 05:46:35;;;;;;;6.27;2.53;;;13.20;99.90;;;;;;5121240;27;20371;-75
2023/08/29 05:49:00;;;;;;;4.70;3.10;;;13.20;99.90;;;;;;5157080;27;20082;-75
2023/08/29 05:51:27;;;;;;;4.20;2.50;;;13.30;99.90;;;;;;5156581;27;20371;-78
2023/08/29 05:53:53;;;;;;;4.67;2.70;;;13.40;99.90;;;;;;5104673;27;20099;-75
2023/08/29 05:56:19;;;;;;;4.73;2.70;;;13.40;99.90;;;;;;5138441;27;20284;-74
2023/08/29 05:58:46;;;;;;;5.23;3.37;;;13.50;99.90;;;;;;5121051;27;20624;-75
2023/08/29 06:01:11;;;;;;;6.07;2.53;;;13.60;99.90;;;;;;5104623;27;20344;-74
2023/08/29 06:03:37;;;;;;;6.40;2.73;;;13.70;99.90;;;;;;5121065;27;20661;-74
2023/08/29 06:06:03;;;;;;;4.27;2.83;;;13.80;99.90;;;;;;5104239;27;20093;-74
2023/08/29 06:08:35;;;;;;;6.50;2.70;;;14.00;99.90;;;;;;5156124;27;20039;-75
2023/08/29 06:11:03;;;;;;;4.37;2.57;;;14.10;99.90;;;;;;5121780;27;20043;-75
2023/08/29 06:13:29;;;;;;;4.63;2.73;;;14.70;99.90;;;;;;5137914;27;20334;-76
2023/08/29 06:15:55;;;;;;;3.77;2.23;;;15.60;99.90;;;;;;5137804;27;20292;-75
2023/08/29 06:18:21;;;;;;;4.17;2.50;;;16.70;99.90;;;;;;5117327;27;20371;-75
2023/08/29 06:20:47;;;;;;;5.17;2.30;;;17.70;99.90;;;;;;5135258;27;20281;-75
2023/08/29 06:23:13;;;;;;;3.47;2.17;;;18.60;99.90;;;;;;5117690;27;20388;-75
2023/08/29 06:25:39;;;;;;;4.17;2.10;;;19.50;99.90;;;;;;5100146;27;20051;-76
2023/08/29 06:28:05;;;;;;;3.37;2.00;;;20.10;99.90;;;;;;5117365;27;20606;-75
2023/08/29 06:30:31;;;;;;;3.90;2.20;;;20.40;99.90;;;;;;5116872;27;20134;-75
2023/08/29 06:32:57;;;;;;;4.67;2.17;;;20.80;99.90;;;;;;5117127;27;20047;-75
2023/08/29 06:35:23;;;;;;;4.30;2.00;;;20.90;99.90;;;;;;5134247;27;20044;-75
2023/08/29 06:37:49;;;;;;;4.43;2.03;;;21.20;99.90;;;;;;5133838;27;20075;-75
2023/08/29 06:40:15;;;;;;;3.80;2.10;;;21.20;99.90;;;;;;5133878;27;20043;-73
2023/08/29 06:42:41;;;;;;;2.90;1.90;;;21.20;99.90;;;;;;5116867;27;20058;-73
2023/08/29 06:45:08;;;;;;;4.53;2.23;;;21.30;99.90;;;;;;5135206;27;20546;-72
2023/08/29 06:47:33;;;;;;;5.23;2.40;;;21.40;99.90;;;;;;5133242;27;20551;-70
2023/08/29 06:49:59;;;;;;;6.17;2.60;;;21.70;99.90;;;;;;5133772;27;20039;-73
2023/08/29 06:52:28;;;;;;;6.07;2.77;;;22.00;99.90;;;;;;5116988;27;20043;-72
2023/08/29 06:54:54;;;;;;;5.53;2.40;;;22.30;99.90;;;;;;5133684;27;20035;-74
2023/08/29 06:57:21;;;;;;;5.97;2.30;;;22.80;99.90;;;;;;5116516;27;20103;-75
2023/08/29 06:59:47;;;;;;;5.93;2.10;;;23.20;99.90;;;;;;5099232;27;20047;-76
2023/08/29 07:02:13;;;;;;;4.20;2.23;;;23.40;99.90;;;;;;5132906;27;20055;-76
2023/08/29 07:04:42;;;;;;;4.43;1.90;;;23.50;99.90;;;;;;5133264;27;20039;-76
2023/08/29 07:07:09;;;;;;;3.13;1.63;;;23.80;99.90;;;;;;5099111;27;20053;-76
2023/08/29 07:09:43;;;;;;;5.03;1.50;;;24.20;99.90;;;;;;5100771;27;20035;-76
2023/08/29 07:12:20;;;;;;;3.33;1.60;;;24.70;99.90;;;;;;5133758;27;20046;-76
2023/08/29 07:14:46;;;;;;;4.13;1.93;;;25.20;99.90;;;;;;5115810;27;20475;-75
2023/08/29 07:17:18;;;;;;;4.57;1.60;;;25.40;99.90;;;;;;5120128;27;20050;-76
2023/08/29 07:19:45;;;;;;;3.17;1.70;;;25.30;99.20;;;;;;5119371;27;20042;-76
2023/08/29 07:22:14;;;;;;;3.60;1.50;;;24.90;99.30;;;;;;5120649;27;20046;-76
2023/08/29 07:24:40;;;;;;;4.20;1.50;;;24.60;99.90;;;;;;5136414;27;20086;-76
2023/08/29 07:27:12;;;;;;;2.00;1.37;;;24.40;99.90;;;;;;5088590;27;20107;-76
2023/08/29 07:29:41;;;;;;;3.27;1.50;;;24.30;99.90;;;;;;5101978;27;20444;-77
2023/08/29 07:32:07;;;;;;;3.10;1.30;;;24.40;99.90;;;;;;5136755;27;20092;-76
2023/08/29 07:34:34;;;;;;;3.37;1.50;;;24.60;99.90;;;;;;5118405;27;20533;-76
2023/08/29 07:37:03;;;;;;;4.47;1.80;;;24.90;99.90;;;;;;5154845;27;20107;-76
2023/08/29 07:39:32;;;;;;;3.80;1.40;;;25.20;98.70;;;;;;5115537;27;20137;-76
2023/08/29 07:42:00;;;;;;;1.83;1.17;;;25.40;95.90;;;;;;5102027;27;20379;-76
2023/08/29 07:44:29;;;;;;;2.50;1.40;;;25.60;96.00;;;;;;5135625;27;20062;-76
2023/08/29 07:46:56;;;;;;;3.23;1.23;;;25.80;94.20;;;;;;5154490;27;20523;-78
2023/08/29 07:49:22;;;;;;;2.33;1.10;;;25.70;93.30;;;;;;5118657;27;20482;-74
2023/08/29 07:51:51;;;;;;;3.27;1.27;;;25.70;92.60;;;;;;5119011;27;20049;-75
2023/08/29 07:54:17;;;;;;;4.07;1.30;;;25.80;91.40;;;;;;5118823;27;20049;-75
2023/08/29 07:56:42;;;;;;;3.73;1.20;;;25.60;89.60;;;;;;5117926;27;20047;-74
2023/08/29 07:59:09;;;;;;;5.63;1.37;;;25.30;90.30;;;;;;5101906;27;20111;-74
2023/08/29 08:01:35;;;;;;;1.90;1.10;;;24.80;91.90;;;;;;5135783;27;20046;-73
2023/08/29 08:04:03;;;;;;;3.40;1.30;;;24.30;93.50;;;;;;5135977;27;20053;-75
2023/08/29 08:06:29;;;;;;;2.70;1.20;;;23.90;95.50;;;;;;5136486;27;20133;-74
2023/08/29 08:08:55;;;;;;;2.73;1.20;;;23.60;97.40;;;;;;5118724;27;20121;-75
2023/08/29 08:11:21;;;;;;;5.53;1.50;;;23.20;98.80;;;;;;5102292;27;20562;-75
2023/08/29 08:13:47;;;;;;;2.43;1.13;;;23.10;99.80;;;;;;5135716;27;20069;-75
2023/08/29 08:16:13;;;;;;;2.13;1.10;;;23.00;99.90;;;;;;5118942;27;20118;-75
2023/08/29 08:18:42;;;;;;;2.17;1.20;;;22.80;99.90;;;;;;5119544;27;20053;-77
2023/08/29 08:21:08;;;;;;;2.30;1.30;;;22.60;99.90;;;;;;5118820;27;20456;-76
2023/08/29 08:23:34;;;;;;;3.37;1.73;;;22.30;99.90;;;;;;5119003;27;20087;-74
2023/08/29 08:26:00;;;;;;;2.90;1.40;;;22.20;99.90;;;;;;5101447;27;20490;-74
2023/08/29 08:28:26;;;;;;;3.90;1.80;;;22.00;99.90;;;;;;5102240;27;20035;-75
2023/08/29 08:30:52;;;;;;;3.20;1.43;;;21.90;99.90;;;;;;5118558;27;20469;-76
2023/08/29 08:33:17;;;;;;;2.57;1.50;;;21.80;99.90;;;;;;5135532;27;20074;-75
2023/08/29 08:35:44;;;;;;;2.10;1.40;;;21.80;99.90;;;;;;5101575;27;20086;-76
2023/08/29 08:38:09;;;;;;;3.17;1.50;;;21.70;99.90;;;;;;5118991;27;20047;-75
2023/08/29 08:40:38;;;;;;;3.93;1.97;;;21.60;99.90;;;;;;5118707;27;20496;-75
2023/08/29 08:43:10;;;;;;;3.50;1.90;;;21.60;99.90;;;;;;5136128;27;20049;-76
2023/08/29 08:45:39;;;;;;;5.10;1.57;;;21.50;99.90;;;;;;5118450;27;20107;-76
2023/08/29 08:48:05;;;;;;;3.27;1.73;;;21.30;99.90;;;;;;5153880;27;20097;-74
2023/08/29 08:50:32;;;;;;;4.47;2.20;;;21.20;99.90;;;;;;5136165;27;20051;-76
2023/08/29 08:52:59;;;;;;;5.13;1.93;;;21.20;99.90;;;;;;5097898;28;20126;-75
2023/08/29 08:55:26;;;;;;;4.10;1.70;;;21.10;99.90;;;;;;5098375;28;20075;-76
2023/08/29 08:57:55;;;;;;;4.57;1.60;;;21.00;99.90;;;;;;5114735;28;20530;-75
2023/08/29 09:00:20;;;;;;;4.07;1.87;;;21.00;99.90;;;;;;5116103;27;20051;-75
2023/08/29 09:02:47;;;;;;;9.00;1.77;;;20.90;99.90;;;;;;5084843;27;20054;-76
2023/08/29 09:05:19;;;;;;;2.60;1.67;;;20.90;99.90;;;;;;5119267;27;20054;-69
2023/08/29 09:07:45;;;;;;;3.57;1.80;;;20.80;99.90;;;;;;5135920;27;20051;-69
2023/08/29 09:10:12;;;;;;;4.10;1.60;;;20.80;99.90;;;;;;5136286;27;20175;-71
2023/08/29 09:12:49;;;;;;;2.87;1.57;;;20.80;99.90;;;;;;5118797;27;20111;-72
2023/08/29 09:15:16;;;;;;;4.33;1.90;;;20.70;99.90;;;;;;5126946;27;20050;-70
2023/08/29 09:17:50;;;;;;;2.77;1.80;;;20.80;99.90;;;;;;5138530;27;20047;-70
2023/08/29 09:20:17;;;;;;;3.55;2.10;;;20.80;99.90;;;;;;5138693;27;20073;-71
2023/08/29 09:22:44;;;;;;;3.43;1.80;;;20.80;99.90;;;;;;5157064;27;20428;-69
2023/08/29 09:25:11;;;;;;;3.03;2.00;;;20.90;99.90;;;;;;5156690;27;20047;-70
2023/08/29 09:27:41;;;;;;;2.67;1.90;;;20.80;99.90;;;;;;5156859;27;20050;-77
2023/08/29 09:30:11;;;;;;;3.27;1.70;;;21.00;99.90;;;;;;5137956;27;20042;-74
2023/08/29 09:32:43;;;;;;;2.80;1.70;;;21.00;99.90;;;;;;5138796;27;20038;-76
2023/08/29 09:35:14;;;;;;;2.40;1.60;;;21.10;99.90;;;;;;5119610;27;20486;-76
2023/08/29 09:37:42;;;;;;;8.23;2.60;;;21.20;99.90;;;;;;5138572;27;20053;-76
2023/08/29 09:40:15;;;;;;;6.13;1.80;;;21.30;99.90;;;;;;5156842;27;20054;-76
2023/08/29 09:42:42;;;;;;;4.43;1.67;;;21.40;99.90;;;;;;5138674;27;20047;-76
2023/08/29 09:45:14;;;;;;;4.10;1.80;;;21.40;99.90;;;;;;5121230;27;20142;-76
2023/08/29 09:47:43;;;;;;;3.63;2.10;;;21.50;99.90;;;;;;5138182;27;20063;-76
2023/08/29 09:50:09;;;;;;;4.30;2.20;;;21.50;99.90;;;;;;5137739;27;20054;-76
2023/08/29 09:52:35;;;;;;;3.13;2.03;;;21.50;99.90;;;;;;5104221;27;20493;-76
2023/08/29 09:55:03;;;;;;;3.30;2.00;;;21.50;99.90;;;;;;5087058;27;20039;-76
2023/08/29 09:57:33;;;;;;;4.20;1.80;;;21.50;99.90;;;;;;5121342;27;20049;-76
2023/08/29 10:00:04;;;;;;;2.53;1.80;;;21.40;99.90;;;;;;5138833;27;20038;-76
2023/08/29 10:02:30;;;;;;;3.47;1.60;;;21.40;99.90;;;;;;5137975;27;20043;-76
2023/08/29 10:05:08;;;;;;;3.50;1.87;;;21.40;99.90;;;;;;5137779;27;20091;-76
2023/08/29 10:07:42;;;;;;;2.97;1.70;;;21.30;99.90;;;;;;5120813;27;20486;-76
2023/08/29 10:10:10;;;;;;;3.30;1.70;;;21.20;99.90;;;;;;5137763;27;20078;-74
2023/08/29 10:12:36;;;;;;;3.90;1.50;;;21.10;99.90;;;;;;5103612;27;20474;-74
2023/08/29 10:15:04;;;;;;;3.13;1.80;;;21.10;99.90;;;;;;5120408;27;20486;-74
2023/08/29 10:17:35;;;;;;;3.60;1.90;;;21.00;99.90;;;;;;5138039;27;20058;-74
2023/08/29 10:20:12;;;;;;;4.00;2.00;;;21.00;99.90;;;;;;5120215;27;20097;-74
2023/08/29 10:22:41;;;;;;;3.20;1.70;;;20.90;99.90;;;;;;5122055;27;20080;-74
2023/08/29 10:25:07;;;;;;;3.07;1.80;;;20.80;99.90;;;;;;5120510;27;20436;-76
2023/08/29 10:27:34;;;;;;;3.70;1.60;;;20.70;99.90;;;;;;5103795;27;20402;-76
2023/08/29 10:30:07;;;;;;;3.97;2.00;;;20.70;99.90;;;;;;5120967;27;20081;-76
2023/08/29 10:32:34;;;;;;;3.07;1.63;;;20.80;99.90;;;;;;5103902;27;20050;-76
2023/08/29 10:35:03;;;;;;;3.37;1.83;;;20.90;99.90;;;;;;5086698;27;20046;-77
2023/08/29 10:37:35;;;;;;;2.65;1.58;;;20.90;99.90;;;;;;5121222;27;20414;-76
2023/08/29 10:40:11;;;;;;;3.70;1.97;;;20.90;99.90;;;;;;5118670;27;20095;-76
2023/08/29 10:42:57;;;;;;;3.03;1.80;;;21.00;99.90;;;;;;5138134;27;20046;-76
2023/08/29 10:45:41;;;;;;;4.03;2.00;;;21.20;99.90;;;;;;5120589;27;20054;-76
2023/08/29 10:48:07;;;;;;;4.88;2.40;;;21.40;99.90;;;;;;5102935;27;20050;-73
2023/08/29 10:50:37;;;;;;;3.40;1.90;;;21.50;99.90;;;;;;5155525;27;20042;-77
2023/08/29 10:53:18;;;;;;;4.70;2.53;;;21.50;99.90;;;;;;5120633;27;20061;-76
2023/08/29 10:56:01;;;;;;;4.73;2.17;;;21.60;99.90;;;;;;5136910;27;20419;-76
2023/08/29 10:58:48;;;;;;;3.63;2.00;;;21.70;99.90;;;;;;5137793;27;20062;-77
2023/08/29 11:01:36;;;;;;;2.90;1.70;;;21.70;99.90;;;;;;5105520;27;20047;-77
2023/08/29 11:04:11;;;;;;;5.50;2.57;;;21.90;99.90;;;;;;5119845;27;20078;-77
2023/08/29 11:06:53;;;;;;;3.27;2.13;;;22.00;99.90;;;;;;5137101;27;20046;-78
2023/08/29 11:09:21;;;;;;;3.60;2.30;;;22.10;99.90;;;;;;5103074;27;20046;-75
2023/08/29 11:12:14;;;;;;;4.77;2.30;;;22.10;99.90;;;;;;5136703;27;20129;-75
2023/08/29 11:14:53;;;;;;;5.70;2.37;;;22.10;99.90;;;;;;5132889;27;20058;-77
2023/08/29 11:17:23;;;;;;;3.07;1.97;;;22.00;99.90;;;;;;5119389;27;20047;-73
2023/08/29 11:19:57;;;;;;;3.90;2.10;;;22.00;99.90;;;;;;5120178;27;20065;-76
2023/08/29 11:22:31;;;;;;;3.55;1.98;;;21.80;99.90;;;;;;5136301;27;20126;-77
2023/08/29 11:24:58;;;;;;;3.70;2.00;;;21.80;99.90;;;;;;5104589;27;20103;-74
2023/08/29 11:27:24;;;;;;;5.50;2.40;;;21.80;99.90;;;;;;5154825;27;20042;-73
2023/08/29 11:29:52;;;;;;;4.53;2.20;;;21.80;99.90;;;;;;5119218;27;20394;-69
2023/08/29 11:32:19;;;;;;;5.00;2.00;;;21.80;99.90;;;;;;5136396;27;20050;-71
2023/08/29 11:34:50;;;;;;;4.50;2.03;;;21.80;99.90;;;;;;5119595;27;20496;-68
2023/08/29 11:37:15;;;;;;;3.07;1.83;;;21.80;99.90;;;;;;5154699;27;20082;-69
2023/08/29 11:39:55;;;;;;;3.47;1.70;;;21.80;99.90;;;;;;5136626;27;20088;-69
2023/08/29 11:42:22;;;;;;;4.20;2.00;;;21.90;99.90;;;;;;5154729;27;20042;-69
2023/08/29 11:44:53;;;;;;;3.70;2.40;;;22.00;99.90;;;;;;5154800;27;20435;-69
2023/08/29 11:47:19;;;;;;;2.93;1.70;;;22.00;99.90;;;;;;5154647;27;20038;-73
2023/08/29 11:49:49;;;;;;;4.33;2.10;;;22.10;99.90;;;;;;5136407;27;20363;-73
2023/08/29 11:52:16;;;;;;;3.50;1.90;;;22.10;99.90;;;;;;5102345;27;20385;-71
2023/08/29 11:54:53;;;;;;;3.63;1.90;;;22.20;99.90;;;;;;5154931;27;20069;-69
2023/08/29 11:57:19;;;;;;;3.17;1.67;;;22.20;99.90;;;;;;5136348;27;20068;-69
2023/08/29 11:59:47;;;;;;;3.07;1.67;;;22.30;99.90;;;;;;5154728;27;20061;-69
2023/08/29 12:02:14;;;;;;;3.47;1.80;;;22.20;98.50;;;;;;5154501;27;20050;-70
2023/08/29 12:04:41;;;;;;;5.10;1.80;;;22.30;98.70;;;;;;5136620;27;20047;-69
2023/08/29 12:07:11;;;;;;;2.83;1.60;;;22.30;98.60;;;;;;5136543;27;20054;-70
2023/08/29 12:09:39;;;;;;;4.07;1.73;;;22.30;98.00;;;;;;5154694;27;20046;-70
2023/08/29 12:12:08;;;;;;;3.93;1.90;;;22.30;97.50;;;;;;5136264;27;20050;-76
2023/08/29 12:14:52;;;;;;;2.33;1.50;;;22.30;97.00;;;;;;5119008;27;20512;-70
2023/08/29 12:17:19;;;;;;;3.83;2.22;;;22.20;97.40;;;;;;5135991;27;20043;-71
2023/08/29 12:19:45;;;;;;;4.07;1.97;;;22.10;96.90;;;;;;5154663;27;20058;-80
2023/08/29 12:22:11;;;;;;;2.67;1.60;;;22.00;97.20;;;;;;5135929;27;20419;-68
2023/08/29 12:24:37;;;;;;;2.87;1.47;;;22.00;97.40;;;;;;5154419;27;20123;-70
2023/08/29 12:27:07;;;;;;;3.10;1.53;;;22.00;97.40;;;;;;5154456;27;20096;-67
2023/08/29 12:29:33;;;;;;;4.43;1.80;;;22.00;97.00;;;;;;5135653;27;20394;-75
2023/08/29 12:31:59;;;;;;;2.50;1.50;;;22.00;97.40;;;;;;5135701;27;20043;-71
2023/08/29 12:34:25;;;;;;;3.33;1.77;;;22.00;97.70;;;;;;5102225;27;20042;-76
2023/08/29 12:36:51;;;;;;;3.70;1.40;;;22.00;97.40;;;;;;5120990;27;20047;-76
2023/08/29 12:39:22;;;;;;;2.17;1.40;;;21.90;96.20;;;;;;5120898;27;20095;-76
2023/08/29 12:41:48;;;;;;;3.07;1.63;;;21.90;95.70;;;;;;5140192;27;20042;-75
2023/08/29 12:44:14;;;;;;;3.80;1.57;;;21.90;96.20;;;;;;5139659;27;20118;-75
2023/08/29 12:46:40;;;;;;;2.33;1.30;;;21.90;96.70;;;;;;5158458;27;20046;-75
2023/08/29 12:49:07;;;;;;;4.07;1.90;;;21.90;97.20;;;;;;5105725;27;20053;-75
2023/08/29 12:51:32;;;;;;;3.53;1.90;;;22.00;97.80;;;;;;5122668;27;20046;-80